createdAt,value
2019-05-17T00:00:47.453Z,11.45
2019-05-17T00:01:46.921Z,11.32
2019-05-17T00:02:46.572Z,11.18
2019-05-17T00:03:47.086Z,11.14
2019-05-17T00:04:46.985Z,10.99
2019-05-17T00:05:46.605Z,11.22
2019-05-17T00:06:47.682Z,11.36
2019-05-17T00:07:47.551Z,11.40
2019-05-17T00:08:47.257Z,11.51
2019-05-17T00:09:47.710Z,11.43
2019-05-17T00:10:46.517Z,11.57
2019-05-17T00:11:47.306Z,11.62
2019-05-17T00:12:47.130Z,11.51
2019-05-17T00:13:46.600Z,11.44
2019-05-17T00:14:47.277Z,11.48
2019-05-17T00:15:47.402Z,11.45
2019-05-17T00:16:46.928Z,11.51
2019-05-17T00:17:46.861Z,11.54
2019-05-17T00:18:46.356Z,11.55
2019-05-17T00:19:46.458Z,11.48
2019-05-17T00:20:46.540Z,11.55
2019-05-17T00:21:47.562Z,11.52
2019-05-17T00:22:47.196Z,11.59
2019-05-17T00:23:47.006Z,11.66
2019-05-17T00:24:47.727Z,11.48
2019-05-17T00:25:46.993Z,11.52
2019-05-17T00:26:46.701Z,11.54
2019-05-17T00:27:47.357Z,11.50
2019-05-17T00:28:46.933Z,11.51
2019-05-17T00:29:46.509Z,11.50
2019-05-17T00:30:46.572Z,11.44
2019-05-17T00:31:46.221Z,11.41
2019-05-17T00:32:47.612Z,11.37
2019-05-17T00:33:47.101Z,11.32
2019-05-17T00:34:46.999Z,11.35
2019-05-17T00:35:46.902Z,11.29
2019-05-17T00:36:46.961Z,11.40
2019-05-17T00:37:46.574Z,11.43
2019-05-17T00:38:51.238Z,11.43
2019-05-17T00:39:47.163Z,11.48
2019-05-17T00:40:47.046Z,11.51
2019-05-17T00:41:46.989Z,11.54
2019-05-17T00:42:46.762Z,11.60
2019-05-17T00:43:46.308Z,11.62
2019-05-17T00:44:47.359Z,11.77
2019-05-17T00:45:46.855Z,11.70
2019-05-17T00:46:46.741Z,11.81
2019-05-17T00:47:46.833Z,11.78
2019-05-17T00:48:46.659Z,11.80
2019-05-17T00:49:46.535Z,11.72
2019-05-17T00:50:52.312Z,11.65
2019-05-17T00:51:47.480Z,11.44
2019-05-17T00:52:47.546Z,11.35
2019-05-17T00:53:46.803Z,11.35
2019-05-17T00:54:46.882Z,11.30
2019-05-17T00:55:46.748Z,11.43
2019-05-17T00:56:46.501Z,11.48
2019-05-17T00:57:47.480Z,11.54
2019-05-17T00:58:47.743Z,11.35
2019-05-17T00:59:47.605Z,11.11
2019-05-17T01:00:47.846Z,11.12
2019-05-17T01:01:46.967Z,11.15
2019-05-17T01:02:46.986Z,11.11
2019-05-17T01:03:47.694Z,11.12
2019-05-17T01:04:47.603Z,11.12
2019-05-17T01:05:47.318Z,11.30
2019-05-17T01:06:47.012Z,11.10
2019-05-17T01:07:47.256Z,11.14
2019-05-17T01:08:59.384Z,11.15
2019-05-17T01:09:47.257Z,11.32
2019-05-17T01:10:47.409Z,11.11
2019-05-17T01:11:47.366Z,11.02
2019-05-17T01:12:48.189Z,11.02
2019-05-17T01:13:46.810Z,11.00
2019-05-17T01:14:46.809Z,11.07
2019-05-17T01:15:47.433Z,10.97
2019-05-17T01:16:47.459Z,10.94
2019-05-17T01:17:47.472Z,10.94
2019-05-17T01:18:47.080Z,11.00
2019-05-17T01:19:47.326Z,11.17
2019-05-17T01:20:47.456Z,11.14
2019-05-17T01:21:47.450Z,11.14
2019-05-17T01:22:47.501Z,11.14
2019-05-17T01:23:46.931Z,11.12
2019-05-17T01:24:46.945Z,11.17
2019-05-17T01:25:48.152Z,11.15
2019-05-17T01:26:47.089Z,11.12
2019-05-17T01:27:47.414Z,11.04
2019-05-17T01:28:47.008Z,10.92
2019-05-17T01:29:47.025Z,10.94
2019-05-17T01:30:47.044Z,10.89
2019-05-17T01:31:47.060Z,10.96
2019-05-17T01:32:47.083Z,10.90
2019-05-17T01:33:47.321Z,10.94
2019-05-17T01:34:47.175Z,11.14
2019-05-17T01:35:47.133Z,10.89
2019-05-17T01:36:47.138Z,10.93
2019-05-17T01:37:47.595Z,10.84
2019-05-17T01:38:47.182Z,10.90
2019-05-17T01:39:47.188Z,10.76
2019-05-17T01:40:47.206Z,10.76
2019-05-17T01:41:47.223Z,10.61
2019-05-17T01:42:47.236Z,10.69
2019-05-17T01:43:47.540Z,10.68
2019-05-17T01:44:47.383Z,10.82
2019-05-17T01:45:48.055Z,10.76
2019-05-17T01:46:47.305Z,10.78
2019-05-17T01:47:47.652Z,10.89
2019-05-17T01:48:47.340Z,10.69
2019-05-17T01:49:47.357Z,10.89
2019-05-17T01:50:47.368Z,10.96
2019-05-17T01:51:47.384Z,10.94
2019-05-17T01:52:47.402Z,11.15
2019-05-17T01:53:47.415Z,11.07
2019-05-17T01:54:47.432Z,11.05
2019-05-17T01:55:47.448Z,11.19
2019-05-17T01:56:47.461Z,11.11
2019-05-17T01:57:47.773Z,11.14
2019-05-17T01:58:47.496Z,11.19
2019-05-17T01:59:47.519Z,11.18
2019-05-17T02:00:47.534Z,11.18
2019-05-17T02:01:47.551Z,11.15
2019-05-17T02:02:47.564Z,11.11
2019-05-17T02:03:47.582Z,11.17
2019-05-17T02:04:47.597Z,11.22
2019-05-17T02:05:47.623Z,11.11
2019-05-17T02:06:47.628Z,11.17
2019-05-17T02:07:47.647Z,11.15
2019-05-17T02:08:47.687Z,11.02
2019-05-17T02:09:47.829Z,11.08
2019-05-17T02:10:47.690Z,11.12
2019-05-17T02:11:47.713Z,11.12
2019-05-17T02:12:48.985Z,11.05
2019-05-17T02:13:47.739Z,10.97
2019-05-17T02:14:47.755Z,11.04
2019-05-17T02:15:47.773Z,11.12
2019-05-17T02:16:47.868Z,11.15
2019-05-17T02:17:47.828Z,11.11
2019-05-17T02:18:47.823Z,11.15
2019-05-17T02:19:47.839Z,11.22
2019-05-17T02:20:47.852Z,11.18
2019-05-17T02:21:48.049Z,11.25
2019-05-17T02:22:47.887Z,11.30
2019-05-17T02:23:47.931Z,11.27
2019-05-17T02:24:47.920Z,11.32
2019-05-17T02:25:47.935Z,11.30
2019-05-17T02:26:47.951Z,11.41
2019-05-17T02:27:48.008Z,11.40
2019-05-17T02:28:47.983Z,11.40
2019-05-17T02:29:48.010Z,11.32
2019-05-17T02:30:48.017Z,11.41
2019-05-17T02:31:48.038Z,11.32
2019-05-17T02:32:48.050Z,11.43
2019-05-17T02:33:48.066Z,11.35
2019-05-17T02:34:48.093Z,11.41
2019-05-17T02:35:48.101Z,11.36
2019-05-17T02:36:48.115Z,11.22
2019-05-17T02:37:48.135Z,11.27
2019-05-17T02:38:48.149Z,11.11
2019-05-17T02:39:58.113Z,11.22
2019-05-17T02:40:48.182Z,11.07
2019-05-17T02:41:48.196Z,11.08
2019-05-17T02:42:48.227Z,11.18
2019-05-17T02:43:48.230Z,11.14
2019-05-17T02:44:48.245Z,11.11
2019-05-17T02:45:48.263Z,11.15
2019-05-17T02:46:48.284Z,11.11
2019-05-17T02:47:48.299Z,11.04
2019-05-17T02:48:48.311Z,10.97
2019-05-17T02:49:48.331Z,10.93
2019-05-17T02:50:48.425Z,10.92
2019-05-17T02:51:48.369Z,11.04
2019-05-17T02:52:48.376Z,11.02
2019-05-17T02:53:48.396Z,10.94
2019-05-17T02:54:48.412Z,10.90
2019-05-17T02:55:48.424Z,11.02
2019-05-17T02:56:48.450Z,10.92
2019-05-17T02:57:48.460Z,10.93
2019-05-17T02:58:48.482Z,10.92
2019-05-17T02:59:48.494Z,11.07
2019-05-17T03:00:48.509Z,11.18
2019-05-17T03:01:48.524Z,11.10
2019-05-17T03:02:48.548Z,10.89
2019-05-17T03:03:48.558Z,10.84
2019-05-17T03:04:48.574Z,10.93
2019-05-17T03:05:48.589Z,11.04
2019-05-17T03:06:48.634Z,11.10
2019-05-17T03:07:48.622Z,10.93
2019-05-17T03:08:48.643Z,10.89
2019-05-17T03:09:48.654Z,10.90
2019-05-17T03:10:48.678Z,10.87
2019-05-17T03:11:48.698Z,10.82
2019-05-17T03:12:48.720Z,10.96
2019-05-17T03:13:48.719Z,11.14
2019-05-17T03:14:48.741Z,10.90
2019-05-17T03:15:48.752Z,10.86
2019-05-17T03:16:48.767Z,10.97
2019-05-17T03:17:48.788Z,11.07
2019-05-17T03:18:48.810Z,11.08
2019-05-17T03:19:48.820Z,11.00
2019-05-17T03:20:48.841Z,10.99
2019-05-17T03:21:48.857Z,10.93
2019-05-17T03:22:48.872Z,10.92
2019-05-17T03:23:48.894Z,10.93
2019-05-17T03:24:48.897Z,10.89
2019-05-17T03:25:48.918Z,10.93
2019-05-17T03:26:52.375Z,11.05
2019-05-17T03:27:48.951Z,11.08
2019-05-17T03:28:48.966Z,10.74
2019-05-17T03:29:48.983Z,10.68
2019-05-17T03:30:49.019Z,10.64
2019-05-17T03:31:57.319Z,10.68
2019-05-17T03:32:49.383Z,10.68
2019-05-17T03:33:55.121Z,10.89
2019-05-17T03:34:55.289Z,10.87
2019-05-17T03:35:49.079Z,10.87
2019-05-17T03:36:49.098Z,10.97
2019-05-17T03:37:49.110Z,10.82
2019-05-17T03:38:49.128Z,10.78
2019-05-17T03:39:49.145Z,10.93
2019-05-17T03:41:17.689Z,10.96
2019-05-17T03:41:49.175Z,10.99
2019-05-17T03:42:49.200Z,10.93
2019-05-17T03:43:49.219Z,10.89
2019-05-17T03:44:49.224Z,10.79
2019-05-17T03:45:49.238Z,10.86
2019-05-17T03:46:49.259Z,10.76
2019-05-17T03:47:49.274Z,10.92
2019-05-17T03:48:49.293Z,11.05
2019-05-17T03:49:49.375Z,11.02
2019-05-17T03:50:49.319Z,11.02
2019-05-17T03:51:49.338Z,11.07
2019-05-17T03:52:49.351Z,11.07
2019-05-17T03:53:49.372Z,10.90
2019-05-17T03:54:52.820Z,10.81
2019-05-17T03:55:49.519Z,10.90
2019-05-17T03:56:49.421Z,10.84
2019-05-17T03:57:52.995Z,10.79
2019-05-17T03:58:52.800Z,10.74
2019-05-17T03:59:52.273Z,10.68
2019-05-17T04:00:49.488Z,10.57
2019-05-17T04:01:52.497Z,10.57
2019-05-17T04:02:49.512Z,10.60
2019-05-17T04:03:49.539Z,10.59
2019-05-17T04:04:52.690Z,10.59
2019-05-17T04:05:52.666Z,10.54
2019-05-17T04:06:52.409Z,10.51
2019-05-17T04:07:49.599Z,10.57
2019-05-17T04:08:52.624Z,10.54
2019-05-17T04:09:52.969Z,10.71
2019-05-17T04:10:52.703Z,10.60
2019-05-17T04:11:49.659Z,10.67
2019-05-17T04:12:52.725Z,10.56
2019-05-17T04:13:49.686Z,10.64
2019-05-17T04:14:53.056Z,10.64
2019-05-17T04:15:52.776Z,10.67
2019-05-17T04:16:49.736Z,10.86
2019-05-17T04:17:52.709Z,10.99
2019-05-17T04:18:49.772Z,10.89
2019-05-17T04:19:52.983Z,10.99
2019-05-17T04:20:52.706Z,10.96
2019-05-17T04:21:49.817Z,10.79
2019-05-17T04:22:52.555Z,10.78
2019-05-17T04:23:49.849Z,10.71
2019-05-17T04:24:52.334Z,10.57
2019-05-17T04:25:52.386Z,10.56
2019-05-17T04:26:52.420Z,10.54
2019-05-17T04:27:53.388Z,10.54
2019-05-17T04:28:52.967Z,10.46
2019-05-17T04:29:53.025Z,10.51
2019-05-17T04:30:52.637Z,10.54
2019-05-17T04:31:49.978Z,10.54
2019-05-17T04:32:52.676Z,10.40
2019-05-17T04:33:53.338Z,10.44
2019-05-17T04:34:52.606Z,10.38
2019-05-17T04:35:53.797Z,10.40
2019-05-17T04:36:52.227Z,10.37
2019-05-17T04:37:52.976Z,10.38
2019-05-17T04:38:52.635Z,10.38
2019-05-17T04:39:52.517Z,10.38
2019-05-17T04:40:53.452Z,10.37
2019-05-17T04:41:54.371Z,10.57
2019-05-17T04:42:52.656Z,10.48
2019-05-17T04:43:52.902Z,10.60
2019-05-17T04:44:52.741Z,10.68
2019-05-17T04:45:53.201Z,10.61
2019-05-17T04:46:53.357Z,10.68
2019-05-17T04:47:52.680Z,10.64
2019-05-17T04:48:53.331Z,10.56
2019-05-17T04:49:53.292Z,10.67
2019-05-17T04:50:53.318Z,10.67
2019-05-17T04:51:52.560Z,10.68
2019-05-17T04:52:53.454Z,10.68
2019-05-17T04:53:52.975Z,10.72
2019-05-17T04:54:53.434Z,10.76
2019-05-17T04:55:53.771Z,10.78
2019-05-17T04:56:53.085Z,10.76
2019-05-17T04:57:53.022Z,10.79
2019-05-17T04:58:54.143Z,10.82
2019-05-17T04:59:52.348Z,10.86
2019-05-17T05:00:53.316Z,10.78
2019-05-17T05:01:53.543Z,10.84
2019-05-17T05:02:52.709Z,10.93
2019-05-17T05:03:52.478Z,10.86
2019-05-17T05:04:53.176Z,10.94
2019-05-17T05:05:53.528Z,10.72
2019-05-17T05:06:52.478Z,10.75
2019-05-17T05:07:53.237Z,10.87
2019-05-17T05:08:52.881Z,10.87
2019-05-17T05:09:52.314Z,10.87
2019-05-17T05:10:53.556Z,11.07
2019-05-17T05:12:00.365Z,11.02
2019-05-17T05:12:52.441Z,10.93
2019-05-17T05:13:53.114Z,10.90
2019-05-17T05:14:52.333Z,10.76
2019-05-17T05:15:52.169Z,10.81
2019-05-17T05:16:52.904Z,10.92
2019-05-17T05:17:52.722Z,10.79
2019-05-17T05:18:52.107Z,10.84
2019-05-17T05:19:53.035Z,10.81
2019-05-17T05:20:52.629Z,10.69
2019-05-17T05:21:52.030Z,10.76
2019-05-17T05:22:52.708Z,10.69
2019-05-17T05:23:51.799Z,10.82
2019-05-17T05:24:52.522Z,10.76
2019-05-17T05:25:52.214Z,10.84
2019-05-17T05:26:51.824Z,10.76
2019-05-17T05:27:51.655Z,10.69
2019-05-17T05:28:52.817Z,10.69
2019-05-17T05:29:52.132Z,10.68
2019-05-17T05:30:52.676Z,10.90
2019-05-17T05:31:51.782Z,10.75
2019-05-17T05:32:52.503Z,10.71
2019-05-17T05:33:52.229Z,10.76
2019-05-17T05:34:51.999Z,10.94
2019-05-17T05:35:51.694Z,10.97
2019-05-17T05:36:52.496Z,11.04
2019-05-17T05:37:52.560Z,11.05
2019-05-17T05:38:51.573Z,10.87
2019-05-17T05:39:53.951Z,10.94
2019-05-17T05:40:52.163Z,10.99
2019-05-17T05:41:51.863Z,11.17
2019-05-17T05:42:51.595Z,11.23
2019-05-17T05:43:52.579Z,11.27
2019-05-17T05:44:52.231Z,11.29
2019-05-17T05:45:53.466Z,11.12
2019-05-17T05:46:51.523Z,11.19
2019-05-17T05:47:52.157Z,11.12
2019-05-17T05:48:52.182Z,11.08
2019-05-17T05:49:52.054Z,11.04
2019-05-17T05:50:52.115Z,11.15
2019-05-17T05:51:52.325Z,11.15
2019-05-17T05:52:52.432Z,11.40
2019-05-17T05:53:52.218Z,11.36
2019-05-17T05:54:52.077Z,11.36
2019-05-17T05:55:51.837Z,11.44
2019-05-17T05:56:52.438Z,11.35
2019-05-17T05:57:52.184Z,11.36
2019-05-17T05:58:52.275Z,11.40
2019-05-17T05:59:51.799Z,11.45
2019-05-17T06:00:53.109Z,11.45
2019-05-17T06:01:52.503Z,11.50
2019-05-17T06:02:52.336Z,11.68
2019-05-17T06:03:52.016Z,11.70
2019-05-17T06:04:51.928Z,11.77
2019-05-17T06:05:52.515Z,11.80
2019-05-17T06:06:52.196Z,11.73
2019-05-17T06:07:52.190Z,11.69
2019-05-17T06:08:52.107Z,11.81
2019-05-17T06:09:51.870Z,11.81
2019-05-17T06:10:53.166Z,11.70
2019-05-17T06:11:51.995Z,11.57
2019-05-17T06:12:51.808Z,11.69
2019-05-17T06:13:52.447Z,11.69
2019-05-17T06:14:52.351Z,11.72
2019-05-17T06:15:51.868Z,11.62
2019-05-17T06:16:52.145Z,11.59
2019-05-17T06:17:51.992Z,11.52
2019-05-17T06:18:51.738Z,11.51
2019-05-17T06:19:51.840Z,11.70
2019-05-17T06:20:52.412Z,11.81
2019-05-17T06:21:52.062Z,11.91
2019-05-17T06:22:51.861Z,12.03
2019-05-17T06:23:51.770Z,11.91
2019-05-17T06:24:52.122Z,11.97
2019-05-17T06:25:52.224Z,12.17
2019-05-17T06:26:52.542Z,12.09
2019-05-17T06:27:52.108Z,12.02
2019-05-17T06:28:51.935Z,12.02
2019-05-17T06:29:51.871Z,11.97
2019-05-17T06:30:52.208Z,12.07
2019-05-17T06:31:52.022Z,12.22
2019-05-17T06:32:51.919Z,12.25
2019-05-17T06:33:52.452Z,12.42
2019-05-17T06:34:51.955Z,12.42
2019-05-17T06:35:52.511Z,12.57
2019-05-17T06:36:52.809Z,12.62
2019-05-17T06:37:53.601Z,12.62
2019-05-17T06:38:52.740Z,12.65
2019-05-17T06:39:52.621Z,12.42
2019-05-17T06:40:52.454Z,12.53
2019-05-17T06:41:52.268Z,12.76
2019-05-17T06:42:52.540Z,12.57
2019-05-17T06:43:52.445Z,12.55
2019-05-17T06:44:52.419Z,12.54
2019-05-17T06:45:52.374Z,12.55
2019-05-17T06:46:52.157Z,12.62
2019-05-17T06:47:52.171Z,12.73
2019-05-17T06:48:52.980Z,12.94
2019-05-17T06:49:53.434Z,12.87
2019-05-17T06:50:52.229Z,13.03
2019-05-17T06:51:52.238Z,13.28
2019-05-17T06:52:53.269Z,13.33
2019-05-17T06:53:52.505Z,13.11
2019-05-17T06:54:52.583Z,12.93
2019-05-17T06:55:53.404Z,13.01
2019-05-17T06:56:52.634Z,13.03
2019-05-17T06:57:52.783Z,12.91
2019-05-17T06:58:52.359Z,13.00
2019-05-17T06:59:52.529Z,13.09
2019-05-17T07:00:52.460Z,13.15
2019-05-17T07:01:52.412Z,13.25
2019-05-17T07:02:52.431Z,13.22
2019-05-17T07:03:52.447Z,13.16
2019-05-17T07:04:52.459Z,13.04
2019-05-17T07:05:52.476Z,13.08
2019-05-17T07:06:52.495Z,13.23
2019-05-17T07:07:52.515Z,13.22
2019-05-17T07:08:52.527Z,13.22
2019-05-17T07:09:52.641Z,13.33
2019-05-17T07:10:52.565Z,13.18
2019-05-17T07:11:52.582Z,13.01
2019-05-17T07:12:58.584Z,12.85
2019-05-17T07:13:52.611Z,12.73
2019-05-17T07:14:52.630Z,12.94
2019-05-17T07:15:52.647Z,13.08
2019-05-17T07:16:52.662Z,13.30
2019-05-17T07:17:52.683Z,13.33
2019-05-17T07:18:52.699Z,13.35
2019-05-17T07:19:52.715Z,13.37
2019-05-17T07:20:52.733Z,13.20
2019-05-17T07:21:52.747Z,13.27
2019-05-17T07:22:52.766Z,13.27
2019-05-17T07:23:52.787Z,13.13
2019-05-17T07:24:52.806Z,13.15
2019-05-17T07:25:53.034Z,13.30
2019-05-17T07:26:52.833Z,13.56
2019-05-17T07:27:52.851Z,13.47
2019-05-17T07:28:52.876Z,13.35
2019-05-17T07:29:52.887Z,13.35
2019-05-17T07:30:52.909Z,13.37
2019-05-17T07:31:52.916Z,13.30
2019-05-17T07:32:52.941Z,13.56
2019-05-17T07:33:53.070Z,13.46
2019-05-17T07:34:52.986Z,13.22
2019-05-17T07:35:53.026Z,13.25
2019-05-17T07:36:53.003Z,13.09
2019-05-17T07:37:53.021Z,13.13
2019-05-17T07:38:53.045Z,13.47
2019-05-17T07:40:01.087Z,13.28
2019-05-17T07:40:53.070Z,13.23
2019-05-17T07:41:53.097Z,13.11
2019-05-17T07:43:06.678Z,13.11
2019-05-17T07:43:53.132Z,13.05
2019-05-17T07:44:53.266Z,13.08
2019-05-17T07:45:53.168Z,13.20
2019-05-17T07:46:53.178Z,13.15
2019-05-17T07:47:53.190Z,13.11
2019-05-17T07:48:53.204Z,13.30
2019-05-17T07:49:54.654Z,13.16
2019-05-17T07:50:53.245Z,13.27
2019-05-17T07:51:53.264Z,13.19
2019-05-17T07:52:53.285Z,12.94
2019-05-17T07:53:53.296Z,12.91
2019-05-17T07:54:53.439Z,12.97
2019-05-17T07:55:53.335Z,12.93
2019-05-17T07:56:53.345Z,13.01
2019-05-17T07:57:53.362Z,13.13
2019-05-17T07:58:53.378Z,13.16
2019-05-17T07:59:53.393Z,13.35
2019-05-17T08:00:53.418Z,13.20
2019-05-17T08:01:53.424Z,13.33
2019-05-17T08:02:53.452Z,13.16
2019-05-17T08:03:53.475Z,13.15
2019-05-17T08:04:53.488Z,13.20
2019-05-17T08:05:53.506Z,13.33
2019-05-17T08:06:53.527Z,13.35
2019-05-17T08:07:53.534Z,13.39
2019-05-17T08:08:53.636Z,13.54
2019-05-17T08:09:53.566Z,13.70
2019-05-17T08:10:53.588Z,13.70
2019-05-17T08:11:53.602Z,13.85
2019-05-17T08:12:53.628Z,13.87
2019-05-17T08:13:53.648Z,13.96
2019-05-17T08:14:53.654Z,14.03
2019-05-17T08:15:53.672Z,13.85
2019-05-17T08:16:53.697Z,14.11
2019-05-17T08:17:53.712Z,14.11
2019-05-17T08:18:53.721Z,14.03
2019-05-17T08:19:53.740Z,13.95
2019-05-17T08:20:53.763Z,13.96
2019-05-17T08:21:53.788Z,14.10
2019-05-17T08:22:53.804Z,13.92
2019-05-17T08:23:53.818Z,13.99
2019-05-17T08:24:53.840Z,13.97
2019-05-17T08:25:56.331Z,14.05
2019-05-17T08:26:53.976Z,14.05
2019-05-17T08:27:53.898Z,14.30
2019-05-17T08:28:53.926Z,14.25
2019-05-17T08:29:53.911Z,14.14
2019-05-17T08:30:53.932Z,14.07
2019-05-17T08:31:53.958Z,14.03
2019-05-17T08:32:53.962Z,14.00
2019-05-17T08:33:53.989Z,14.07
2019-05-17T08:34:54.012Z,13.99
2019-05-17T08:35:54.030Z,14.04
2019-05-17T08:36:54.039Z,14.17
2019-05-17T08:37:54.071Z,14.14
2019-05-17T08:38:54.072Z,14.25
2019-05-17T08:39:54.114Z,14.41
2019-05-17T08:40:54.102Z,14.23
2019-05-17T08:41:54.315Z,14.12
2019-05-17T08:42:54.140Z,14.17
2019-05-17T08:43:54.169Z,14.05
2019-05-17T08:44:54.185Z,14.10
2019-05-17T08:45:54.188Z,14.04
2019-05-17T08:46:54.208Z,14.05
2019-05-17T08:47:54.230Z,14.08
2019-05-17T08:48:54.238Z,14.14
2019-05-17T08:49:54.261Z,14.32
2019-05-17T08:50:54.276Z,14.50
2019-05-17T08:51:54.293Z,14.40
2019-05-17T08:52:54.309Z,14.55
2019-05-17T08:53:54.327Z,14.50
2019-05-17T08:54:54.348Z,14.66
2019-05-17T08:55:54.365Z,14.72
2019-05-17T08:56:54.379Z,14.72
2019-05-17T08:57:54.406Z,14.79
2019-05-17T08:58:54.445Z,14.91
2019-05-17T08:59:54.432Z,14.86
2019-05-17T09:00:54.449Z,14.86
2019-05-17T09:01:54.474Z,14.72
2019-05-17T09:02:54.486Z,14.69
2019-05-17T09:03:54.504Z,14.62
2019-05-17T09:04:54.520Z,14.79
2019-05-17T09:05:54.537Z,14.88
2019-05-17T09:06:54.553Z,15.11
2019-05-17T09:07:54.581Z,15.36
2019-05-17T09:08:54.611Z,15.49
2019-05-17T09:09:54.607Z,15.58
2019-05-17T09:10:54.625Z,15.52
2019-05-17T09:11:54.645Z,15.21
2019-05-17T09:12:54.661Z,15.39
2019-05-17T09:13:58.513Z,15.37
2019-05-17T09:14:54.702Z,15.22
2019-05-17T09:15:54.721Z,15.15
2019-05-17T09:16:54.732Z,15.19
2019-05-17T09:17:54.751Z,15.42
2019-05-17T09:18:54.771Z,15.21
2019-05-17T09:19:54.789Z,15.44
2019-05-17T09:20:54.803Z,15.49
2019-05-17T09:21:54.822Z,15.17
2019-05-17T09:22:54.844Z,15.39
2019-05-17T09:23:54.868Z,14.99
2019-05-17T09:24:54.886Z,15.03
2019-05-17T09:25:54.904Z,15.15
2019-05-17T09:26:54.912Z,15.10
2019-05-17T09:27:54.932Z,15.14
2019-05-17T09:28:54.948Z,15.28
2019-05-17T09:29:54.967Z,15.37
2019-05-17T09:30:54.984Z,15.40
2019-05-17T09:31:55.006Z,15.43
2019-05-17T09:32:55.032Z,15.43
2019-05-17T09:33:55.039Z,15.47
2019-05-17T09:34:55.060Z,15.72
2019-05-17T09:35:55.081Z,15.57
2019-05-17T09:36:55.096Z,15.46
2019-05-17T09:37:55.113Z,15.39
2019-05-17T09:38:55.130Z,15.61
2019-05-17T09:39:55.152Z,15.54
2019-05-17T09:40:55.164Z,15.76
2019-05-17T09:41:55.190Z,15.67
2019-05-17T09:42:55.206Z,15.61
2019-05-17T09:44:07.755Z,15.86
2019-05-17T09:44:55.237Z,16.04
2019-05-17T09:45:55.254Z,16.10
2019-05-17T09:46:55.271Z,15.79
2019-05-17T09:47:55.293Z,15.82
2019-05-17T09:48:55.316Z,15.79
2019-05-17T09:49:55.324Z,15.68
2019-05-17T09:50:55.344Z,15.55
2019-05-17T09:51:55.363Z,15.70
2019-05-17T09:52:55.379Z,16.00
2019-05-17T09:53:55.396Z,16.13
2019-05-17T09:54:55.416Z,16.20
2019-05-17T09:55:55.436Z,16.36
2019-05-17T09:56:55.455Z,16.13
2019-05-17T09:57:55.472Z,16.26
2019-05-17T09:58:55.491Z,16.21
2019-05-17T09:59:56.000Z,15.82
2019-05-17T10:00:55.523Z,15.84
2019-05-17T10:01:55.546Z,16.15
2019-05-17T10:02:55.560Z,16.20
2019-05-17T10:03:55.578Z,16.17
2019-05-17T10:04:55.593Z,16.20
2019-05-17T10:05:55.613Z,15.79
2019-05-17T10:06:55.632Z,15.72
2019-05-17T10:07:55.652Z,16.02
2019-05-17T10:08:55.670Z,16.16
2019-05-17T10:09:55.710Z,16.16
2019-05-17T10:11:08.129Z,16.02
2019-05-17T10:11:55.722Z,16.00
2019-05-17T10:12:55.739Z,15.76
2019-05-17T10:13:58.357Z,15.83
2019-05-17T10:14:55.781Z,16.12
2019-05-17T10:15:55.811Z,16.15
2019-05-17T10:16:55.812Z,16.41
2019-05-17T10:17:55.833Z,16.15
2019-05-17T10:18:55.849Z,16.04
2019-05-17T10:19:55.873Z,16.02
2019-05-17T10:20:56.107Z,15.77
2019-05-17T10:21:55.904Z,15.75
2019-05-17T10:22:55.920Z,15.79
2019-05-17T10:23:55.939Z,15.82
2019-05-17T10:24:55.959Z,16.20
2019-05-17T10:25:55.981Z,16.61
2019-05-17T10:26:55.997Z,16.86
2019-05-17T10:27:56.020Z,17.02
2019-05-17T10:28:56.031Z,16.84
2019-05-17T10:29:56.048Z,16.72
2019-05-17T10:30:56.066Z,16.79
2019-05-17T10:31:56.092Z,16.58
2019-05-17T10:32:56.104Z,16.57
2019-05-17T10:33:58.297Z,16.41
2019-05-17T10:34:56.142Z,16.42
2019-05-17T10:35:56.161Z,16.35
2019-05-17T10:36:56.177Z,16.61
2019-05-17T10:37:56.194Z,16.68
2019-05-17T10:38:56.213Z,16.64
2019-05-17T10:39:56.238Z,16.75
2019-05-17T10:40:56.247Z,16.75
2019-05-17T10:41:56.269Z,16.71
2019-05-17T10:42:56.286Z,16.46
2019-05-17T10:43:56.308Z,16.41
2019-05-17T10:44:56.341Z,16.33
2019-05-17T10:45:56.343Z,16.47
2019-05-17T10:46:56.361Z,16.60
2019-05-17T10:47:56.378Z,16.99
2019-05-17T10:48:56.399Z,16.84
2019-05-17T10:49:56.418Z,16.66
2019-05-17T10:50:56.434Z,16.60
2019-05-17T10:51:56.456Z,16.64
2019-05-17T10:52:56.474Z,16.46
2019-05-17T10:53:56.493Z,16.60
2019-05-17T10:54:56.508Z,16.72
2019-05-17T10:55:56.526Z,16.84
2019-05-17T10:56:56.550Z,16.93
2019-05-17T10:57:56.561Z,17.12
2019-05-17T10:58:56.584Z,17.23
2019-05-17T10:59:56.599Z,16.79
2019-05-17T11:00:56.621Z,16.61
2019-05-17T11:01:56.691Z,16.38
2019-05-17T11:02:56.737Z,16.33
2019-05-17T11:03:56.675Z,16.42
2019-05-17T11:04:56.692Z,16.43
2019-05-17T11:05:56.724Z,16.54
2019-05-17T11:06:56.731Z,16.60
2019-05-17T11:07:56.746Z,16.57
2019-05-17T11:08:56.773Z,16.64
2019-05-17T11:09:56.783Z,16.89
2019-05-17T11:10:56.801Z,16.84
2019-05-17T11:11:56.821Z,16.69
2019-05-17T11:12:56.838Z,16.53
2019-05-17T11:13:56.855Z,16.38
2019-05-17T11:15:10.490Z,16.68
2019-05-17T11:15:56.895Z,16.87
2019-05-17T11:16:56.913Z,17.01
2019-05-17T11:17:56.932Z,17.27
2019-05-17T11:18:56.982Z,17.46
2019-05-17T11:19:56.971Z,17.70
2019-05-17T11:20:56.985Z,17.78
2019-05-17T11:21:57.003Z,17.94
2019-05-17T11:22:57.033Z,17.87
2019-05-17T11:23:57.044Z,17.92
2019-05-17T11:24:57.067Z,17.72
2019-05-17T11:25:57.096Z,17.79
2019-05-17T11:26:57.097Z,18.03
2019-05-17T11:27:57.120Z,18.03
2019-05-17T11:28:57.135Z,18.03
2019-05-17T11:29:57.150Z,18.29
2019-05-17T11:30:57.170Z,18.22
2019-05-17T11:31:57.193Z,18.44
2019-05-17T11:32:57.220Z,18.47
2019-05-17T11:33:57.233Z,18.50
2019-05-17T11:34:57.249Z,18.35
2019-05-17T11:35:57.263Z,18.38
2019-05-17T11:36:57.288Z,18.26
2019-05-17T11:37:57.301Z,18.18
2019-05-17T11:38:57.324Z,18.03
2019-05-17T11:39:57.346Z,18.25
2019-05-17T11:40:57.358Z,18.01
2019-05-17T11:41:57.376Z,17.98
2019-05-17T11:42:57.451Z,17.85
2019-05-17T11:43:57.425Z,17.94
2019-05-17T11:44:57.446Z,18.16
2019-05-17T11:45:57.456Z,18.38
2019-05-17T11:46:57.472Z,18.66
2019-05-17T11:47:57.503Z,18.41
2019-05-17T11:48:57.522Z,18.13
2019-05-17T11:49:57.528Z,18.20
2019-05-17T11:50:57.548Z,18.03
2019-05-17T11:51:57.572Z,18.22
2019-05-17T11:52:57.604Z,18.18
2019-05-17T11:53:57.608Z,17.98
2019-05-17T11:54:57.625Z,18.31
2019-05-17T11:55:57.647Z,18.29
2019-05-17T11:56:57.660Z,18.35
2019-05-17T11:57:57.683Z,18.58
2019-05-17T11:58:57.709Z,18.70
2019-05-17T11:59:57.736Z,18.59
2019-05-17T12:00:57.746Z,18.16
2019-05-17T12:01:57.772Z,18.03
2019-05-17T12:02:57.778Z,17.92
2019-05-17T12:03:57.886Z,17.89
2019-05-17T12:04:58.003Z,18.03
2019-05-17T12:05:57.868Z,17.97
2019-05-17T12:06:57.866Z,18.04
2019-05-17T12:07:57.926Z,18.20
2019-05-17T12:08:57.909Z,18.41
2019-05-17T12:09:57.927Z,18.60
2019-05-17T12:10:58.068Z,18.78
2019-05-17T12:11:57.970Z,18.84
2019-05-17T12:12:57.976Z,18.75
2019-05-17T12:13:58.009Z,18.80
2019-05-17T12:14:58.661Z,18.83
2019-05-17T12:15:58.050Z,18.80
2019-05-17T12:16:58.075Z,18.88
2019-05-17T12:17:58.142Z,18.77
2019-05-17T12:18:58.083Z,18.86
2019-05-17T12:19:58.107Z,18.93
2019-05-17T12:20:58.124Z,18.68
2019-05-17T12:21:58.150Z,18.74
2019-05-17T12:22:58.465Z,18.98
2019-05-17T12:23:58.189Z,18.95
2019-05-17T12:24:58.202Z,18.98
2019-05-17T12:25:58.216Z,18.70
2019-05-17T12:26:58.240Z,18.78
2019-05-17T12:27:58.260Z,18.66
2019-05-17T12:28:58.272Z,18.68
2019-05-17T12:29:58.362Z,18.88
2019-05-17T12:30:58.311Z,18.88
2019-05-17T12:31:58.334Z,18.62
2019-05-17T12:32:58.354Z,18.55
2019-05-17T12:33:58.372Z,18.43
2019-05-17T12:34:58.392Z,18.23
2019-05-17T12:35:58.410Z,18.15
2019-05-17T12:36:58.426Z,18.16
2019-05-17T12:37:58.459Z,18.38
2019-05-17T12:38:58.475Z,18.15
2019-05-17T12:39:58.487Z,18.18
2019-05-17T12:40:58.511Z,18.71
2019-05-17T12:41:58.544Z,18.88
2019-05-17T12:42:58.541Z,18.63
2019-05-17T12:43:58.585Z,18.55
2019-05-17T12:44:58.625Z,18.56
2019-05-17T12:46:01.185Z,18.68
2019-05-17T12:46:58.615Z,18.73
2019-05-17T12:47:58.765Z,18.63
2019-05-17T12:49:01.738Z,18.73
2019-05-17T12:49:58.681Z,19.09
2019-05-17T12:50:58.721Z,19.29
2019-05-17T12:51:58.715Z,19.12
2019-05-17T12:52:58.733Z,18.90